createdAt,value
2019-01-18T00:00:39.358Z,95.16
2019-01-18T00:03:08.369Z,95.75
2019-01-18T00:05:37.274Z,96.55
2019-01-18T00:08:06.516Z,96.40
2019-01-18T00:10:35.315Z,95.71
2019-01-18T00:13:04.275Z,95.51
2019-01-18T00:15:32.958Z,95.20
2019-01-18T00:18:01.719Z,94.76
2019-01-18T00:20:30.431Z,94.51
2019-01-18T00:22:59.144Z,94.03
2019-01-18T00:25:27.890Z,93.97
2019-01-18T00:27:56.636Z,93.65
2019-01-18T00:30:25.267Z,94.41
2019-01-18T00:32:53.968Z,94.60
2019-01-18T00:35:22.687Z,95.28
2019-01-18T00:37:51.324Z,96.06
2019-01-18T00:40:21.518Z,95.60
2019-01-18T00:42:50.148Z,95.88
2019-01-18T00:45:20.158Z,95.53
2019-01-18T00:47:48.888Z,95.57
2019-01-18T00:50:19.320Z,96.36
2019-01-18T00:52:48.058Z,96.19
2019-01-18T00:55:17.194Z,96.79
2019-01-18T00:57:45.936Z,96.20
2019-01-18T01:00:23.377Z,95.61
2019-01-18T01:02:52.327Z,95.24
2019-01-18T01:05:21.829Z,95.58
2019-01-18T01:07:50.738Z,95.92
2019-01-18T01:10:19.368Z,96.02
2019-01-18T01:12:48.016Z,96.36
2019-01-18T01:15:19.655Z,96.08
2019-01-18T01:17:49.059Z,95.87
2019-01-18T01:20:20.160Z,96.00
2019-01-18T01:22:48.910Z,95.13
2019-01-18T01:25:17.812Z,95.32
2019-01-18T01:27:46.817Z,96.23
2019-01-18T01:30:20.688Z,96.29
2019-01-18T01:32:49.386Z,97.43
2019-01-18T01:35:18.399Z,96.65
2019-01-18T01:37:47.088Z,97.77
2019-01-18T01:40:18.212Z,97.67
2019-01-18T01:42:47.022Z,97.53
2019-01-18T01:45:16.274Z,97.67
2019-01-18T01:47:44.906Z,97.96
2019-01-18T01:50:16.695Z,98.00
2019-01-18T01:52:45.450Z,97.37
2019-01-18T01:55:19.878Z,97.20
2019-01-18T01:57:48.525Z,97.66
2019-01-18T02:00:23.065Z,97.52
2019-01-18T02:02:51.873Z,97.75
2019-01-18T02:05:20.516Z,98.30
2019-01-18T02:07:49.198Z,98.95
2019-01-18T02:10:19.197Z,99.00
2019-01-18T02:12:48.650Z,99.76
2019-01-18T02:15:19.874Z,99.44
2019-01-18T02:17:48.615Z,98.45
2019-01-18T02:20:19.861Z,98.54
2019-01-18T02:22:48.940Z,98.28
2019-01-18T02:25:18.154Z,97.97
2019-01-18T02:27:47.276Z,99.01
2019-01-18T02:30:24.569Z,98.98
2019-01-18T02:32:53.416Z,98.64
2019-01-18T02:35:22.138Z,98.58
2019-01-18T02:37:50.816Z,98.29
2019-01-18T02:40:19.524Z,98.30
2019-01-18T02:42:48.161Z,98.81
2019-01-18T02:45:19.578Z,98.91
2019-01-18T02:47:48.504Z,98.80
2019-01-18T02:50:17.347Z,98.36
2019-01-18T02:52:46.449Z,99.56
2019-01-18T02:55:15.209Z,99.27
2019-01-18T02:57:43.846Z,99.34
2019-01-18T03:00:20.587Z,99.65
2019-01-18T03:02:49.323Z,99.97
2019-01-18T03:05:20.572Z,100.00
2019-01-18T03:07:49.435Z,99.58
2019-01-18T03:10:20.935Z,99.56
2019-01-18T03:12:49.576Z,99.03
2019-01-18T03:15:18.528Z,99.15
2019-01-18T03:17:47.092Z,98.73
2019-01-18T03:20:17.027Z,99.27
2019-01-18T03:25:33.538Z,99.02
2019-01-18T03:28:02.087Z,99.13
2019-01-18T03:30:30.721Z,98.87
2019-01-18T03:32:59.363Z,98.86
2019-01-18T03:35:28.054Z,98.92
2019-01-18T03:37:56.559Z,99.07
2019-01-18T03:40:26.715Z,99.01
2019-01-18T03:42:55.406Z,99.33
2019-01-18T03:45:24.042Z,99.47
2019-01-18T03:47:52.683Z,99.05
2019-01-18T03:50:24.019Z,99.21
2019-01-18T03:52:52.672Z,99.70
2019-01-18T03:55:27.345Z,99.98
2019-01-18T03:57:55.966Z,99.76
2019-01-18T04:00:28.800Z,100.00
2019-01-18T04:02:57.641Z,100.00
2019-01-18T04:05:26.530Z,100.00
2019-01-18T04:07:55.335Z,100.00
2019-01-18T04:10:24.377Z,100.00
2019-01-18T04:12:53.044Z,100.00
2019-01-18T04:15:24.187Z,100.00
2019-01-18T04:17:52.825Z,100.00
2019-01-18T04:20:22.876Z,100.00
2019-01-18T04:22:51.665Z,100.00
2019-01-18T04:25:22.179Z,100.00
2019-01-18T04:27:50.829Z,100.00
2019-01-18T04:30:22.022Z,100.00
2019-01-18T04:32:51.073Z,100.00
2019-01-18T04:35:19.924Z,100.00
2019-01-18T04:37:48.723Z,100.00
2019-01-18T04:40:25.536Z,100.00
2019-01-18T04:42:54.329Z,100.00
2019-01-18T04:45:23.772Z,100.00
2019-01-18T04:47:52.409Z,100.00
2019-01-18T04:50:23.864Z,100.00
2019-01-18T04:52:52.517Z,100.00
2019-01-18T04:55:21.265Z,100.00
2019-01-18T04:57:50.134Z,100.00
2019-01-18T05:00:24.866Z,100.00
2019-01-18T05:02:53.513Z,100.00
2019-01-18T05:05:22.547Z,100.00
2019-01-18T05:07:51.185Z,100.00
2019-01-18T05:10:22.020Z,100.00
2019-01-18T05:12:50.728Z,100.00
2019-01-18T05:15:21.652Z,100.00
2019-01-18T05:17:50.306Z,99.99
2019-01-18T05:20:19.739Z,99.72
2019-01-18T05:22:48.675Z,99.60
2019-01-18T05:25:17.311Z,99.73
2019-01-18T05:27:45.897Z,98.97
2019-01-18T05:30:26.189Z,98.59
2019-01-18T05:32:55.030Z,97.83
2019-01-18T05:35:23.667Z,97.43
2019-01-18T05:37:52.366Z,97.55
2019-01-18T05:40:22.402Z,97.88
2019-01-18T05:42:50.985Z,97.91
2019-01-18T05:45:21.545Z,97.82
2019-01-18T05:47:50.368Z,97.90
2019-01-18T05:50:21.934Z,98.93
2019-01-18T05:52:50.796Z,99.39
2019-01-18T05:55:19.536Z,99.51
2019-01-18T05:57:48.227Z,99.32
2019-01-18T06:00:32.902Z,99.52
2019-01-18T06:03:01.476Z,99.73
2019-01-18T06:05:30.893Z,100.00
2019-01-18T06:07:59.601Z,99.79
2019-01-18T06:10:28.253Z,99.17
2019-01-18T06:12:56.833Z,98.18
2019-01-18T06:15:25.509Z,97.82
2019-01-18T06:17:54.143Z,97.99
2019-01-18T06:20:22.791Z,99.16
2019-01-18T06:22:51.612Z,98.15
2019-01-18T06:25:20.271Z,96.29
2019-01-18T06:27:48.930Z,92.43
2019-01-18T06:30:18.902Z,89.71
2019-01-18T06:32:47.575Z,87.18
2019-01-18T06:35:16.432Z,85.62
2019-01-18T06:37:45.398Z,83.93
2019-01-18T06:40:16.877Z,82.50
2019-01-18T06:42:45.511Z,79.88
2019-01-18T06:45:16.768Z,77.48
2019-01-18T06:47:45.405Z,75.84
2019-01-18T06:50:16.243Z,74.99
2019-01-18T06:52:45.030Z,74.06
2019-01-18T06:55:13.762Z,73.07
2019-01-18T06:57:42.404Z,71.07
2019-01-18T07:00:14.119Z,69.86
2019-01-18T07:02:42.763Z,68.64
2019-01-18T07:05:11.386Z,67.05
2019-01-18T07:07:39.996Z,65.08
2019-01-18T07:10:11.948Z,65.68
2019-01-18T07:12:40.579Z,65.55
2019-01-18T07:15:11.700Z,67.98
2019-01-18T07:17:40.608Z,67.97
2019-01-18T07:20:12.100Z,67.83
2019-01-18T07:22:40.748Z,68.34
2019-01-18T07:25:26.367Z,64.92
2019-01-18T07:27:55.010Z,66.00
2019-01-18T07:30:32.538Z,67.10
2019-01-18T07:33:01.174Z,67.60
2019-01-18T07:35:29.798Z,68.86
2019-01-18T07:38:04.934Z,69.15
2019-01-18T07:40:33.577Z,68.39
2019-01-18T07:43:02.222Z,66.28
2019-01-18T07:45:31.884Z,64.50
2019-01-18T07:48:00.534Z,64.03
2019-01-18T07:50:29.114Z,64.04
2019-01-18T07:52:58.085Z,63.55
2019-01-18T07:55:26.728Z,64.06
2019-01-18T07:57:55.352Z,64.10
2019-01-18T08:00:28.915Z,63.87
2019-01-18T08:02:57.642Z,64.24
2019-01-18T08:05:27.771Z,62.89
2019-01-18T08:07:56.642Z,65.37
2019-01-18T08:10:25.677Z,65.30
2019-01-18T08:12:54.450Z,66.24
2019-01-18T08:15:25.921Z,67.33
2019-01-18T08:17:54.550Z,68.86
2019-01-18T08:20:24.991Z,68.74
2019-01-18T08:22:53.990Z,68.08
2019-01-18T08:25:22.632Z,67.82
2019-01-18T08:27:51.256Z,70.45
2019-01-18T08:30:21.845Z,69.47
2019-01-18T08:32:50.483Z,69.66
2019-01-18T08:35:20.616Z,69.74
2019-01-18T08:37:49.418Z,69.25
2019-01-18T08:40:32.375Z,69.48
2019-01-18T08:43:01.046Z,69.14
2019-01-18T08:45:32.553Z,69.75
2019-01-18T08:48:01.134Z,69.82
2019-01-18T08:50:29.845Z,70.36
2019-01-18T08:52:58.412Z,69.20
2019-01-18T08:55:27.097Z,68.59
2019-01-18T08:57:55.738Z,68.11
2019-01-18T09:00:27.054Z,68.02
2019-01-18T09:02:56.055Z,66.96
2019-01-18T09:05:26.480Z,66.13
2019-01-18T09:07:55.322Z,64.95
2019-01-18T09:10:26.921Z,64.74
2019-01-18T09:12:55.558Z,64.03
2019-01-18T09:15:24.487Z,64.00
2019-01-18T09:17:53.133Z,63.74
2019-01-18T09:20:24.339Z,63.83
2019-01-18T09:22:53.216Z,64.42
2019-01-18T09:25:21.958Z,65.43
2019-01-18T09:27:50.673Z,64.03
2019-01-18T09:30:24.903Z,64.15
2019-01-18T09:32:53.848Z,63.83
2019-01-18T09:35:24.482Z,64.36
2019-01-18T09:37:53.681Z,63.56
2019-01-18T09:40:25.836Z,63.57
2019-01-18T09:42:54.873Z,64.12
2019-01-18T09:45:23.523Z,64.98
2019-01-18T09:47:52.167Z,66.56
2019-01-18T09:50:23.145Z,66.10
2019-01-18T09:52:51.975Z,67.57
2019-01-18T09:55:25.198Z,66.96
2019-01-18T09:57:53.809Z,66.60
2019-01-18T10:00:27.911Z,67.32
2019-01-18T10:02:57.053Z,66.78
2019-01-18T10:05:25.718Z,67.35
2019-01-18T10:07:54.355Z,67.73
2019-01-18T10:10:23.694Z,67.33
2019-01-18T10:12:52.828Z,66.59
2019-01-18T10:15:23.943Z,65.60
2019-01-18T10:17:52.565Z,64.87
2019-01-18T10:20:21.238Z,65.70
2019-01-18T10:22:50.598Z,66.07
2019-01-18T10:25:19.727Z,64.59
2019-01-18T10:27:48.500Z,64.58
2019-01-18T10:30:25.449Z,64.90
2019-01-18T10:32:54.391Z,65.31
2019-01-18T10:35:24.398Z,65.43
2019-01-18T10:37:53.044Z,66.07
2019-01-18T10:40:21.723Z,66.17
2019-01-18T10:42:50.998Z,65.72
2019-01-18T10:45:20.421Z,66.46
2019-01-18T10:47:50.658Z,65.46
2019-01-18T10:50:27.400Z,65.76
2019-01-18T10:52:56.291Z,66.05
2019-01-18T10:55:24.944Z,65.95
2019-01-18T10:57:53.569Z,64.64
2019-01-18T11:00:25.400Z,64.32
2019-01-18T11:02:54.134Z,64.92
2019-01-18T11:05:23.279Z,65.18
2019-01-18T11:07:51.969Z,64.65
2019-01-18T11:10:20.710Z,64.71
2019-01-18T11:12:49.404Z,65.05
2019-01-18T11:15:26.627Z,64.62
2019-01-18T11:17:55.688Z,65.07
2019-01-18T11:20:39.073Z,65.57
2019-01-18T11:23:07.702Z,66.83
2019-01-18T11:25:36.359Z,66.12
2019-01-18T11:28:05.227Z,65.86
2019-01-18T11:30:33.858Z,65.77
2019-01-18T11:33:02.529Z,65.44
2019-01-18T11:35:31.364Z,65.02
2019-01-18T11:38:00.002Z,64.46
2019-01-18T11:40:28.659Z,64.22
2019-01-18T11:42:57.360Z,64.79
2019-01-18T11:45:26.139Z,63.70
2019-01-18T11:47:54.748Z,62.38
2019-01-18T11:50:28.173Z,61.05
2019-01-18T11:52:56.819Z,61.04
2019-01-18T11:55:25.447Z,59.46
2019-01-18T11:57:54.351Z,59.12
2019-01-18T12:00:25.517Z,58.79
2019-01-18T12:02:54.149Z,59.23
2019-01-18T12:05:22.883Z,58.84
2019-01-18T12:07:51.791Z,59.57
2019-01-18T12:10:28.590Z,60.05
2019-01-18T12:12:57.501Z,59.19
2019-01-18T12:15:26.326Z,58.05
2019-01-18T12:17:54.960Z,57.74
2019-01-18T12:20:26.464Z,57.14
2019-01-18T12:22:55.206Z,57.80
2019-01-18T12:25:23.900Z,57.95
2019-01-18T12:27:52.632Z,57.65
2019-01-18T12:30:24.206Z,58.73
2019-01-18T12:32:52.845Z,58.13
2019-01-18T12:35:21.557Z,58.28
2019-01-18T12:37:50.198Z,58.67
2019-01-18T12:40:18.840Z,59.02
2019-01-18T12:42:47.521Z,59.81
2019-01-18T12:45:18.362Z,59.09
2019-01-18T12:47:46.997Z,59.77
2019-01-18T12:50:24.822Z,60.09
2019-01-18T12:52:53.452Z,59.54
2019-01-18T12:55:22.090Z,59.65
2019-01-18T12:57:51.757Z,59.10
2019-01-18T13:00:23.111Z,59.58
2019-01-18T13:02:51.756Z,59.79
2019-01-18T13:05:26.209Z,59.83
2019-01-18T13:07:54.768Z,59.92
2019-01-18T13:10:23.410Z,59.91
2019-01-18T13:12:52.060Z,60.15
2019-01-18T13:15:23.892Z,60.24
2019-01-18T13:17:52.669Z,59.72
2019-01-18T13:20:21.304Z,60.08
2019-01-18T13:22:49.938Z,59.03
2019-01-18T13:25:19.354Z,59.05
2019-01-18T13:27:47.983Z,58.90
2019-01-18T13:30:18.225Z,59.68
2019-01-18T13:32:47.008Z,60.39
2019-01-18T13:35:15.647Z,60.80
2019-01-18T13:37:44.297Z,60.53
2019-01-18T13:40:21.534Z,60.31
2019-01-18T13:42:50.091Z,60.19
2019-01-18T13:45:18.919Z,60.37
2019-01-18T13:47:47.905Z,60.07
2019-01-18T13:50:20.137Z,59.74
2019-01-18T13:52:48.896Z,60.83
2019-01-18T13:55:23.344Z,60.62
2019-01-18T13:57:51.980Z,61.72
2019-01-18T14:00:20.622Z,62.25
2019-01-18T14:02:49.760Z,62.36
2019-01-18T14:05:18.593Z,63.03
2019-01-18T14:07:47.522Z,63.71
2019-01-18T14:10:22.165Z,64.03
2019-01-18T14:12:50.798Z,64.95
2019-01-18T14:15:21.059Z,65.16
2019-01-18T14:17:49.704Z,65.43
2019-01-18T14:20:21.025Z,65.59
2019-01-18T14:22:50.407Z,65.45
2019-01-18T14:25:25.255Z,65.81
2019-01-18T14:27:53.898Z,65.79
2019-01-18T14:30:29.052Z,64.83
2019-01-18T14:32:57.679Z,65.16
2019-01-18T14:35:26.320Z,65.05
2019-01-18T14:37:54.993Z,64.93
2019-01-18T14:40:23.622Z,65.15
2019-01-18T14:42:53.748Z,65.22
2019-01-18T14:45:34.099Z,65.13
2019-01-18T14:48:02.731Z,65.30
2019-01-18T14:50:31.361Z,64.46
2019-01-18T14:53:00.165Z,64.06
2019-01-18T14:55:28.807Z,64.02
2019-01-18T14:57:57.415Z,64.07
2019-01-18T15:00:33.173Z,64.29
2019-01-18T15:03:02.689Z,64.50
2019-01-18T15:05:31.903Z,64.40
2019-01-18T15:08:00.776Z,66.20
2019-01-18T15:10:29.408Z,67.42
2019-01-18T15:13:03.490Z,67.64
2019-01-18T15:15:32.228Z,68.19
2019-01-18T15:18:00.849Z,68.66
2019-01-18T15:20:31.492Z,69.52
2019-01-18T15:23:00.558Z,70.75
2019-01-18T15:25:29.193Z,70.86
2019-01-18T15:27:57.923Z,71.33
2019-01-18T15:30:31.701Z,72.52
2019-01-18T15:33:00.723Z,73.08
2019-01-18T15:35:32.050Z,73.42
2019-01-18T15:38:00.730Z,73.76
2019-01-18T15:40:32.021Z,74.52
2019-01-18T15:43:01.841Z,74.75
2019-01-18T15:45:30.508Z,75.64
2019-01-18T15:47:59.213Z,74.85
2019-01-18T15:50:30.247Z,74.69
2019-01-18T15:52:59.271Z,75.51
2019-01-18T15:55:28.099Z,75.26
2019-01-18T15:57:56.730Z,76.19
2019-01-18T16:00:30.777Z,75.92
2019-01-18T16:02:59.509Z,75.93
2019-01-18T16:05:28.155Z,75.76
2019-01-18T16:07:57.117Z,77.82
2019-01-18T16:10:25.724Z,77.49
2019-01-18T16:12:54.547Z,78.25
2019-01-18T16:15:29.420Z,78.07
2019-01-18T16:17:58.136Z,77.18
2019-01-18T16:20:26.694Z,78.32
2019-01-18T16:22:55.477Z,78.22
2019-01-18T16:25:26.677Z,78.28
2019-01-18T16:27:55.311Z,78.93
2019-01-18T16:30:25.691Z,79.13
2019-01-18T16:32:56.246Z,79.20
2019-01-18T16:35:25.109Z,79.51
2019-01-18T16:37:53.877Z,79.23
2019-01-18T16:40:25.453Z,79.28
2019-01-18T16:43:00.674Z,79.20
2019-01-18T16:45:29.331Z,79.59
2019-01-18T16:47:57.928Z,79.26
2019-01-18T16:50:26.808Z,79.67
2019-01-18T16:52:55.536Z,79.88
2019-01-18T16:55:24.174Z,79.85
2019-01-18T16:57:52.868Z,80.06
2019-01-18T17:00:33.169Z,80.50
2019-01-18T17:03:01.860Z,80.73
2019-01-18T17:05:30.505Z,80.58
2019-01-18T17:07:59.139Z,81.05
2019-01-18T17:10:27.807Z,81.27
2019-01-18T17:13:03.989Z,81.54
2019-01-18T17:15:33.205Z,81.61
2019-01-18T17:18:01.823Z,80.88
2019-01-18T17:20:39.345Z,80.59
2019-01-18T17:23:08.177Z,79.43
2019-01-18T17:25:36.919Z,78.71
2019-01-18T17:28:05.819Z,78.34
2019-01-18T17:30:34.516Z,78.63
2019-01-18T17:33:03.154Z,78.91
2019-01-18T17:35:40.481Z,78.35
2019-01-18T17:38:21.166Z,78.63
2019-01-18T17:41:07.616Z,78.70
2019-01-18T17:43:48.025Z,78.61
2019-01-18T17:46:34.681Z,78.43
2019-01-18T17:49:15.165Z,78.31
2019-01-18T17:52:06.006Z,78.64
2019-01-18T17:54:46.648Z,78.80
2019-01-18T17:57:21.321Z,79.47
2019-01-18T18:00:10.550Z,80.19
2019-01-18T18:02:51.175Z,80.31
2019-01-18T18:05:34.850Z,81.08
2019-01-18T18:08:15.397Z,80.77
2019-01-18T18:11:07.070Z,80.75
2019-01-18T18:13:56.936Z,80.73
2019-01-18T18:16:31.332Z,80.58
2019-01-18T18:19:31.790Z,80.62
2019-01-18T18:22:14.612Z,80.40
2019-01-18T18:24:54.898Z,80.23
2019-01-18T18:27:47.464Z,80.70
2019-01-18T18:30:19.137Z,80.72
2019-01-18T18:32:50.791Z,80.59
2019-01-18T18:35:27.785Z,80.30
2019-01-18T18:38:10.689Z,79.17
2019-01-18T18:40:57.178Z,78.68
2019-01-18T18:43:50.241Z,78.11
2019-01-18T18:46:40.122Z,78.37
2019-01-18T18:49:14.543Z,79.22
2019-01-18T18:51:48.838Z,80.61
2019-01-18T18:54:29.598Z,80.46
2019-01-18T18:57:13.491Z,80.28
2019-01-18T18:59:56.403Z,80.39
2019-01-18T19:02:40.238Z,80.33
2019-01-18T19:05:31.133Z,79.23
2019-01-18T19:08:11.442Z,79.09
2019-01-18T19:10:52.136Z,79.23
2019-01-18T19:13:42.018Z,80.02
2019-01-18T19:16:28.619Z,81.11
2019-01-18T19:19:18.414Z,80.83
2019-01-18T19:22:08.137Z,81.04
2019-01-18T19:24:51.883Z,80.54
2019-01-18T19:27:42.710Z,80.22
2019-01-18T19:30:23.449Z,80.57
2019-01-18T19:33:10.477Z,80.76
2019-01-18T19:36:07.316Z,80.48
2019-01-18T19:38:58.452Z,80.03
2019-01-18T19:41:46.767Z,80.53
2019-01-18T19:44:24.200Z,80.44
2019-01-18T19:47:01.949Z,79.97
2019-01-18T19:49:36.254Z,78.72
2019-01-18T19:52:28.788Z,77.78
2019-01-18T19:55:06.090Z,78.03
2019-01-18T19:57:49.846Z,79.07
2019-01-18T20:00:33.490Z,79.94
2019-01-18T20:03:07.784Z,79.93
2019-01-18T20:05:54.402Z,81.00
2019-01-18T20:08:37.895Z,80.37
2019-01-18T20:11:12.051Z,77.72
2019-01-18T20:14:03.011Z,78.13
2019-01-18T20:16:49.740Z,78.67
2019-01-18T20:19:33.298Z,78.93
2019-01-18T20:22:32.298Z,79.43
2019-01-18T20:25:03.961Z,80.58
2019-01-18T20:27:53.594Z,81.30
2019-01-18T20:30:31.295Z,80.84
2019-01-18T20:33:22.477Z,80.69
2019-01-18T20:35:54.808Z,79.57
2019-01-18T20:38:43.155Z,79.64
2019-01-18T20:41:20.751Z,80.24
2019-01-18T20:44:01.238Z,81.50
2019-01-18T20:46:49.243Z,80.57
2019-01-18T20:49:35.885Z,80.44
2019-01-18T20:52:10.408Z,80.63
2019-01-18T20:55:00.287Z,80.92
2019-01-18T20:57:43.592Z,80.87
2019-01-18T21:00:30.329Z,80.61
2019-01-18T21:03:10.782Z,80.60
2019-01-18T21:05:48.233Z,80.48
2019-01-18T21:08:34.851Z,80.61
2019-01-18T21:11:09.341Z,80.81
2019-01-18T21:13:49.461Z,80.61
2019-01-18T21:16:40.819Z,79.88
2019-01-18T21:19:21.218Z,79.33
2019-01-18T21:22:09.381Z,79.02
2019-01-18T21:24:55.742Z,79.97
2019-01-18T21:27:43.328Z,80.86
2019-01-18T21:30:29.754Z,81.21
2019-01-18T21:33:21.131Z,81.50
2019-01-18T21:36:10.779Z,81.37
2019-01-18T21:39:11.395Z,80.69
2019-01-18T21:41:48.862Z,81.02
2019-01-18T21:44:41.378Z,81.82
2019-01-18T21:47:32.330Z,81.82
2019-01-18T21:50:21.748Z,81.75
2019-01-18T21:53:11.305Z,83.37
2019-01-18T21:56:03.887Z,83.71
2019-01-18T21:58:35.469Z,83.79
2019-01-18T22:01:24.597Z,83.84
2019-01-18T22:04:08.348Z,84.23
2019-01-18T22:06:48.905Z,83.78
2019-01-18T22:09:31.817Z,84.06
2019-01-18T22:12:08.574Z,84.21
2019-01-18T22:14:55.258Z,84.65
2019-01-18T22:17:35.124Z,85.05
2019-01-18T22:20:14.919Z,84.52
2019-01-18T22:23:07.848Z,83.96
2019-01-18T22:26:14.447Z,84.54
2019-01-18T22:28:46.000Z,85.82
2019-01-18T22:31:22.815Z,86.41
2019-01-18T22:34:06.520Z,86.15
2019-01-18T22:36:59.078Z,85.17
2019-01-18T22:39:39.307Z,84.99
2019-01-18T22:42:25.422Z,84.49
2019-01-18T22:45:11.129Z,84.01
2019-01-18T22:48:00.730Z,84.12
2019-01-18T22:50:49.417Z,84.16
2019-01-18T22:53:23.818Z,84.51
2019-01-18T22:58:59.152Z,85.17
2019-01-18T23:01:47.054Z,85.85
2019-01-18T23:04:27.626Z,86.57
2019-01-18T23:07:11.015Z,87.20
2019-01-18T23:09:51.580Z,87.60
2019-01-18T23:12:44.036Z,87.59
2019-01-18T23:15:48.913Z,88.00
2019-01-18T23:18:29.434Z,88.48
2019-01-18T23:21:09.742Z,88.09
2019-01-18T23:23:58.143Z,87.54
2019-01-18T23:26:47.026Z,87.25
2019-01-18T23:29:24.210Z,87.43
2019-01-18T23:32:01.495Z,87.43
2019-01-18T23:34:39.165Z,87.56
2019-01-18T23:37:13.675Z,87.88
2019-01-18T23:39:47.992Z,88.26
2019-01-18T23:42:43.347Z,88.40
2019-01-18T23:45:17.734Z,89.25
2019-01-18T23:47:52.068Z,89.31
2019-01-18T23:50:36.455Z,89.91
2019-01-18T23:53:44.371Z,90.24
2019-01-18T23:56:16.302Z,90.38
2019-01-18T23:58:56.968Z,90.24
